EGPFEGGD

Guest
Details From EGPF - Glasgow
To EGGD - Bristol International
Flight Number -
Tags generated
Created
Modified
Stats Distance 279 nm / 517 km
Max Altitude 33,900 ft / 10,333 m
Waypoints 7
Social Downloads 6
Likes 0
Share VATSIM

Download

Looking for another format? Having issues loading an existing format? Contact us
Advertisement - Login to hide

Notes

Basic altitude profile: - Ascent Rate: 2200ft/min - Ascent Speed: 220kts - Cruise Altitude: 25000ft - Cruise Speed: 390kts - Descent Rate: 1500ft/min - Descent Speed: 250kts Options: - Use NATs: yes - Use PACOTS: yes - Use low airways: yes - Use high airways: yes

Route

EGPF SUBUK UN864 DOGIT N864 WAL15 EGGD

ID Type Via Altitude (ft/m) Position (lat/lon) Dist (leg/tot) Name
O EGPF APT - 0 / 0 55.87173 / -4.43365 - / 0 nm Glasgow
SUBUK FIX - 33,900 / 10,333 54.38000 / -3.28639 97 / 97 nm
BILVO FIX UN864 (AWY-HI) 29,500 / 8,992 53.73111 / -3.18583 39 / 136 nm
WAL VOR UN864 (AWY-HI) 25,100 / 7,650 53.39194 / -3.13444 20 / 157 nm WALLASEY VOR-DME
DOGIT FIX UN864 (AWY-HI) 24,500 / 7,468 53.17278 / -3.15194 13 / 170 nm
WAL15 FIX N864 (AWY-LO) 22,700 / 6,919 53.12944 / -3.15528 2 / 173 nm
O EGGD APT - 0 / 0 51.38266 / -2.71892 106 / 279 nm Bristol International

Altitude Profile

Advertisement - Login to hide

Weather


0- 5 10 15 20 25 30 35+ Temperature / °C

Clouds and Precipitation
Forecast for 2019-03-26 00:00 UTC. Updated a minute ago

Ground ~20,000 ft ~40,000 ft Winds

EGPF

Details ICAO EGPF (GLA)
Name Glasgow
Region United Kingdom
Timezone Europe/London (UTC+0.0)
Stats Elevation 26 ft / 8 m (AMSL)
Location 55.871700° -4.433700°
Runways 1
Magnetic Variation 2.512° W

METAR

EGPF 252120Z AUTO 27005KT 9999 OVC049 08/05 Q1034

Decode

TAF

TAF EGPF 251658Z 2518/2618 30010KT 9999 FEW012 SCT020 BECMG 2518/2521 23008KT PROB40 TEMPO 2603/2618 8000 -RA SCT006 BKN012

Decode

Departure Runways

ID Width Length Bearing (true/mag) Surface Threshold Overrun Markings Lighting
05 148 ft / 45 m 8,699 ft / 2,651 m 46.34° / 48.85° ASPHALT 0 ft / 0 m 489 ft / 149 m PREC-APP CENTERLINE EDGE THRESHOLD MALSF
23 148 ft / 45 m 8,699 ft / 2,651 m 226.36° / 228.87° ASPHALT 974 ft / 297 m 0 ft / 0 m PREC-APP CENTERLINE EDGE THRESHOLD MALSF

EGGD

Details ICAO EGGD (BRS)
Name Bristol
Region United Kingdom
Timezone Europe/London (UTC+0.0)
Stats Elevation 622 ft / 190 m (AMSL)
Location 51.382700° -2.719110°
Runways 1
Magnetic Variation 1.158° W

METAR

EGGD 252120Z AUTO 27006KT 9999 NCD 05/02 Q1035

Decode

TAF

TAF EGGD 251655Z 2518/2618 27004KT 9999 FEW035= TAF EGNX 251654Z 2518/2618 32010KT CAVOK BECMG 2518/2521 26006KT PROB30 TEMPO 2604/2608 7000 BKN004 BECMG 2608/2611 BKN040

Decode

Destination Runways

ID Width Length Bearing (true/mag) Surface Threshold Overrun Markings Lighting
09 148 ft / 45 m 6,585 ft / 2,007 m 86.42° / 87.58° ASPHALT 0 ft / 0 m 0 ft / 0 m PREC-APP CENTERLINE EDGE THRESHOLD CALVERT TDZ REIL-OMNI
27 148 ft / 45 m 6,585 ft / 2,007 m 266.44° / 267.60° ASPHALT 413 ft / 126 m 0 ft / 0 m PREC-APP CENTERLINE EDGE THRESHOLD ODALS TDZ REIL-OMNI

Approach Navaids

Runway Type Ident Frequency Range Bearing (true/mag) Slope Elevation
09 LOC-ILS IBON 110.15 MHz 18 nm / 33 km 86.43° / 87.59 ° - 622 ft / 190 m (AMSL)
09 DME IBON 110.15 MHz 18 nm / 33 km - - 632 ft / 193 m (AMSL)
09 GS IBON 110.15 MHz 18 nm / 33 km 86.43° / 87.59 ° 3.00° 622 ft / 190 m (AMSL)
27 GS IBTS 110.15 MHz 18 nm / 33 km 266.43° / 267.59 ° 3.00° 622 ft / 190 m (AMSL)
27 DME IBTS 110.15 MHz 18 nm / 33 km - - 631 ft / 192 m (AMSL)
27 LOC-ILS IBTS 110.15 MHz 18 nm / 33 km 266.43° / 267.59 ° - 622 ft / 190 m (AMSL)

Popular Alternatives